Colby, KS

12:16 AM CST on December 29, 2014 (GMT -0600)
145 E Cherry - K0FJ | Change Station
CLOSE
Current Station
Personal Weather Station
Location: Colby, KS
Elevation: 3150 ft
Nearby Weather Stations
Active Advisory: Special Statement

Elev 3150 ft 39.39 °N, 101.05 °W | Updated 5 seconds ago

Clear
Clear
15.4 °F
Feels Like 15 °F
N
1.0
Wind Variable Wind from NE
Gusts 1.0 mph

Today
High -- | Low -- °F
--% Chance of Precip.
Yesterday
High -- | Low -- °F
Precip. -- in
8:03 AM 5:29 PM
First Quarter, 55% visible
Pressure 30.03 in
Visibility 2.5 miles
Clouds Clear
Windchill 15 °F
Dew Point 13 °F
Humidity 89%
Rainfall 0.00 in
Snow Depth Not available.
UV 0 out of 12
Pollen .10 out of 12
Air Quality Not available.
Flu Activity Not available.
METAR KCBK 290555Z AUTO 07003KT 2 1/2SM BR CLR M07/M07 A3003 RMK AO2

More Conditions Fewer Conditions

Pressure 30.03 in
Visibility 2.5 miles
Clouds Clear
Windchill 15 °F
Dew Point 13 °F
Humidity 89%
Rainfall 0.00 in
Snow Depth Not available.
UV 0 out of 12
Pollen .10 out of 12
Air Quality Not available.
Flu Activity Not available.
METAR KCBK 290555Z AUTO 07003KT 2 1/2SM BR CLR M07/M07 A3003 RMK AO2

More Conditions Fewer Conditions

10-Day Weather Forecast

Almanac

Astronomy

Dec. 29, 2014 Rise Set
Actual Time
Civil Twilight
Nautical Twilight
Astronomical Twilight
Moon
Length of Visible Light
Length of Day
Tomorrow will be .
, % of the Moon is Illuminated

Today's Extremes

State Highs State Lows

Community

WunderPhotos

Upload Photos

1,781,544 photos uploaded!

WunderBlogs® & News

Nearby

Air Quality

  Air Quality AQ Index Pollutant
Not available.

Snow Depth

Station Depth Elevation

Earthquake Activity

City Distance Mag. Time & Date
Minimum magnitude displayed is 2.5.

Coastal Water Temperatures

Place Temperature

Nearby Weather Stations